Naples, Texas
Current Conditions -  °F | °C
As of 12:15 PM on Thursday 29 Jan 2015 (Local Time) from KOSA Reporting Station
Clear Clear  
Wind Chill: 69°   Ceiling: Unl
Heat Index: 69°   Visibility: 10mi
Dew Point: 37°   Wind: 9mph
Humidity: 31%   Direction: 350°N
Pressure: 30.25"   Gusts: NA
Location:  33.2°N, 94.68°W
Report Text: KOSA 291815Z AUTO 35008KT 10SM CLR 21/03 A3025 RMK AO1 T02050026
Loading
Personal Weather Stations






























Interactive Weather Map New forecast layout! Learn more

10-Day Weather Forecast

Advertisements
Track Severe Weather on mobile